Time;durP1;ratioP1;P1;durP2;ratioP2;P2;SDS_P1;SDS_P2;PMS_P1;PMS_P2;Temp;Humidity;BMP_temperature;BMP_pressure;BME280_temperature;BME280_humidity;BME280_pressure;Samples;Min_cycle;Max_cycle;Signal;HPM_P1;HPM_P2
2022/01/03 00:00:26;;;;;;;16.35;1.92;;;11.20;91.00;;;;;;5103386;28;20048;-77
2022/01/03 00:02:55;;;;;;;16.08;1.92;;;11.20;91.00;;;;;;5085978;28;20442;-77
2022/01/03 00:05:25;;;;;;;8.95;1.40;;;11.20;91.00;;;;;;5054603;28;20085;-77
2022/01/03 00:07:52;;;;;;;15.32;2.75;;;11.20;91.00;;;;;;5070646;28;20036;-77
2022/01/03 00:10:20;;;;;;;16.27;3.22;;;11.20;90.90;;;;;;5070439;28;20097;-77
2022/01/03 00:12:49;;;;;;;13.13;1.75;;;11.20;90.90;;;;;;5072569;28;20093;-77
2022/01/03 00:15:18;;;;;;;15.38;2.08;;;11.10;90.90;;;;;;5087033;28;20075;-78
2022/01/03 00:17:48;;;;;;;11.20;1.70;;;11.10;91.00;;;;;;5068440;28;20048;-78
2022/01/03 00:20:16;;;;;;;12.57;2.33;;;11.10;90.90;;;;;;5085190;28;20113;-77
2022/01/03 00:22:49;;;;;;;11.57;2.17;;;11.10;91.20;;;;;;5069386;28;20048;-77
2022/01/03 00:25:21;;;;;;;15.52;2.78;;;11.10;91.00;;;;;;5069855;28;20562;-78
2022/01/03 00:28:02;;;;;;;18.90;2.45;;;11.10;90.90;;;;;;5074369;28;20413;-78
2022/01/03 00:30:33;;;;;;;13.40;2.15;;;11.20;91.00;;;;;;5083512;28;20048;-78
2022/01/03 00:33:02;;;;;;;17.25;2.67;;;11.10;91.00;;;;;;5052414;28;20515;-78
2022/01/03 00:35:31;;;;;;;11.70;1.80;;;11.10;91.00;;;;;;5087762;28;20135;-78
2022/01/03 00:38:01;;;;;;;8.82;1.60;;;11.20;91.10;;;;;;5088209;28;20768;-78
2022/01/03 00:40:32;;;;;;;9.73;1.48;;;11.10;91.30;;;;;;5069696;28;20105;-78
2022/01/03 00:42:59;;;;;;;16.38;1.90;;;11.10;91.00;;;;;;5088535;28;20534;-78
2022/01/03 00:45:29;;;;;;;17.45;2.42;;;11.10;91.00;;;;;;5069111;28;20127;-78
2022/01/03 00:47:57;;;;;;;21.17;2.90;;;11.10;91.00;;;;;;5086022;28;20056;-78
2022/01/03 00:50:25;;;;;;;13.60;2.60;;;11.10;90.90;;;;;;5087907;28;20052;-77
2022/01/03 00:52:52;;;;;;;18.95;3.08;;;11.10;90.90;;;;;;5086093;28;20070;-77
2022/01/03 00:55:19;;;;;;;19.45;2.60;;;11.10;90.80;;;;;;5087625;28;20089;-78
2022/01/03 00:58:08;;;;;;;14.88;2.85;;;11.10;90.90;;;;;;5070770;28;20457;-77
2022/01/03 01:00:38;;;;;;;22.23;3.03;;;11.10;90.90;;;;;;5086847;28;20079;-78
2022/01/03 01:03:11;;;;;;;17.33;2.78;;;11.10;90.90;;;;;;5086768;28;20149;-78
2022/01/03 01:05:51;;;;;;;16.20;2.65;;;11.10;90.80;;;;;;5087261;28;20121;-77
2022/01/03 01:08:22;;;;;;;22.90;3.50;;;11.10;90.80;;;;;;5086851;28;20141;-77
2022/01/03 01:10:51;;;;;;;20.10;3.70;;;11.10;90.70;;;;;;5086530;28;20048;-77
2022/01/03 01:13:20;;;;;;;11.50;2.30;;;11.10;90.70;;;;;;5087471;28;20059;-77
2022/01/03 01:15:49;;;;;;;14.15;2.65;;;11.10;90.70;;;;;;5070682;28;20087;-76
2022/01/03 01:18:16;;;;;;;17.05;3.00;;;11.10;90.70;;;;;;5053823;28;20064;-77
2022/01/03 01:20:48;;;;;;;11.63;1.17;;;11.10;90.70;;;;;;5053761;28;20514;-76
2022/01/03 01:23:17;;;;;;;15.90;2.88;;;11.20;90.80;;;;;;5070117;28;20618;-76
2022/01/03 01:28:15;;;;;;;14.48;1.92;;;11.20;90.70;;;;;;5070262;28;20040;-76
2022/01/03 01:30:44;;;;;;;14.15;2.72;;;11.10;90.70;;;;;;5087036;28;20044;-77
2022/01/03 01:33:16;;;;;;;16.25;2.22;;;11.20;90.60;;;;;;5053549;28;20063;-76
2022/01/03 01:36:33;;;;;;;;;;;;;;;;;;;;;
2022/01/03 01:39:15;;;;;;;8.85;1.45;;;11.10;90.50;;;;;;5080499;28;20042;-79
2022/01/03 01:41:46;;;;;;;7.68;1.50;;;11.10;90.50;;;;;;5078622;28;20467;-80
2022/01/03 01:44:14;;;;;;;11.77;2.65;;;11.10;90.50;;;;;;5062478;28;20121;-79
2022/01/03 01:46:53;;;;;;;11.93;2.05;;;11.10;90.50;;;;;;5081674;28;20425;-80
2022/01/03 01:49:23;;;;;;;15.27;2.58;;;11.10;90.50;;;;;;5065628;28;20051;-79
2022/01/03 01:52:03;;;;;;;16.20;2.85;;;11.10;90.40;;;;;;5069772;28;20040;-79
2022/01/03 01:54:38;;;;;;;16.52;2.45;;;11.10;90.40;;;;;;5086384;28;20048;-79
2022/01/03 01:57:23;;;;;;;16.77;2.45;;;11.10;90.30;;;;;;5070694;28;20040;-80
2022/01/03 02:00:13;;;;;;;14.23;2.50;;;11.10;90.30;;;;;;5060081;28;20040;-79
2022/01/03 02:03:05;;;;;;;14.80;2.08;;;11.10;90.30;;;;;;5071548;28;20105;-79
2022/01/03 02:05:38;;;;;;;11.98;2.47;;;11.10;90.30;;;;;;5069632;28;20139;-80
2022/01/03 02:08:17;;;;;;;20.83;3.53;;;11.10;90.30;;;;;;5085506;28;20062;-79
2022/01/03 02:11:06;;;;;;;13.15;2.72;;;11.10;90.10;;;;;;5085450;28;20039;-80
2022/01/03 02:13:34;;;;;;;16.73;2.45;;;11.10;90.10;;;;;;5068910;28;20060;-80
2022/01/03 02:16:04;;;;;;;14.45;3.13;;;11.10;90.20;;;;;;5068651;28;20747;-79
2022/01/03 02:18:40;;;;;;;9.57;1.50;;;11.10;90.20;;;;;;5062327;28;20122;-79
2022/01/03 02:21:11;;;;;;;15.93;2.90;;;11.10;90.50;;;;;;5085183;28;20071;-79
2022/01/03 02:23:41;;;;;;;13.63;2.50;;;11.10;90.30;;;;;;5069774;28;20078;-79
2022/01/03 02:26:08;;;;;;;18.58;2.35;;;11.10;90.30;;;;;;5069551;28;20121;-79
2022/01/03 02:28:35;;;;;;;16.23;3.05;;;11.10;90.20;;;;;;5051586;28;20047;-79
2022/01/03 02:31:04;;;;;;;15.70;1.70;;;11.10;90.20;;;;;;5084460;28;20134;-79
2022/01/03 02:33:33;;;;;;;12.52;2.13;;;11.10;90.30;;;;;;5085693;28;20116;-76
2022/01/03 02:36:04;;;;;;;17.25;3.85;;;11.10;90.30;;;;;;5067316;28;20237;-77
2022/01/03 02:38:32;;;;;;;13.30;1.90;;;11.10;90.30;;;;;;5068102;28;20051;-76
2022/01/03 02:40:59;;;;;;;15.23;2.45;;;11.10;90.30;;;;;;5067528;28;20736;-76
2022/01/03 02:43:26;;;;;;;14.50;2.10;;;11.10;90.30;;;;;;5052181;28;20056;-76
2022/01/03 02:45:53;;;;;;;14.55;2.10;;;11.10;90.40;;;;;;5068080;28;20499;-76
2022/01/03 02:48:22;;;;;;;14.52;1.80;;;11.10;90.40;;;;;;5068316;28;20104;-75
2022/01/03 02:50:52;;;;;;;13.30;2.85;;;11.00;90.40;;;;;;5068883;28;20844;-76
2022/01/03 02:53:19;;;;;;;13.45;1.52;;;11.00;90.40;;;;;;5085211;28;20066;-76
2022/01/03 02:55:49;;;;;;;8.32;1.73;;;11.00;90.50;;;;;;5084565;28;20040;-75
2022/01/03 02:58:21;;;;;;;16.80;2.55;;;11.00;90.50;;;;;;5083196;28;20047;-76
2022/01/03 03:00:52;;;;;;;20.13;2.38;;;11.00;90.50;;;;;;5068257;28;20048;-75
2022/01/03 03:03:35;;;;;;;13.35;2.50;;;11.00;90.50;;;;;;5070826;28;20062;-76
2022/01/03 03:06:02;;;;;;;15.75;1.90;;;11.00;90.40;;;;;;5068637;28;20072;-76
2022/01/03 03:08:32;;;;;;;18.60;2.15;;;11.00;90.50;;;;;;5084165;28;20091;-76
2022/01/03 03:11:01;;;;;;;14.48;2.55;;;11.00;90.40;;;;;;5084730;28;20044;-76
2022/01/03 03:13:28;;;;;;;11.70;2.00;;;11.00;90.30;;;;;;5069124;28;20036;-76
2022/01/03 03:16:01;;;;;;;20.13;2.33;;;11.00;90.40;;;;;;5085091;28;20131;-76
2022/01/03 03:18:29;;;;;;;9.38;1.63;;;11.00;90.40;;;;;;5068907;28;20052;-76
2022/01/03 03:20:58;;;;;;;9.35;2.17;;;11.00;90.50;;;;;;5085842;28;20873;-76
2022/01/03 03:23:27;;;;;;;14.90;1.92;;;11.00;90.50;;;;;;5068831;28;20135;-76
2022/01/03 03:25:54;;;;;;;12.30;1.67;;;11.00;90.50;;;;;;5070751;28;20040;-76
2022/01/03 03:28:25;;;;;;;17.88;2.00;;;11.00;90.50;;;;;;5055528;28;20044;-75
2022/01/03 03:30:56;;;;;;;19.42;2.05;;;11.00;90.40;;;;;;5088550;28;20123;-76
2022/01/03 03:33:34;;;;;;;13.30;2.58;;;10.90;90.40;;;;;;5088469;28;20102;-76
2022/01/03 03:36:04;;;;;;;14.90;2.05;;;10.90;90.40;;;;;;5087153;28;20046;-76
2022/01/03 03:38:31;;;;;;;11.80;2.33;;;10.90;90.40;;;;;;5087950;28;20032;-76
2022/01/03 03:41:03;;;;;;;17.92;2.70;;;11.00;90.50;;;;;;5072749;28;20233;-76
2022/01/03 03:43:35;;;;;;;18.80;2.17;;;10.90;90.40;;;;;;5087384;28;20054;-76
2022/01/03 03:46:07;;;;;;;12.55;2.28;;;10.90;90.40;;;;;;5040185;28;20071;-76
2022/01/03 03:48:36;;;;;;;13.30;2.42;;;10.90;90.40;;;;;;5071616;28;20075;-76
2022/01/03 03:51:03;;;;;;;12.77;1.90;;;10.90;90.40;;;;;;5071126;28;20044;-75
2022/01/03 03:53:32;;;;;;;18.45;2.30;;;10.90;90.40;;;;;;5039205;28;20114;-76
2022/01/03 03:56:00;;;;;;;18.13;2.33;;;10.90;90.40;;;;;;5088085;28;20127;-75
2022/01/03 03:58:30;;;;;;;11.32;1.60;;;10.90;90.30;;;;;;5071538;28;21268;-76
2022/01/03 04:00:58;;;;;;;14.88;2.50;;;10.90;90.40;;;;;;5055009;28;20056;-76
2022/01/03 04:03:38;;;;;;;10.60;2.08;;;10.90;90.40;;;;;;5073928;28;20538;-77
2022/01/03 04:06:06;;;;;;;13.43;2.28;;;10.90;90.50;;;;;;5071239;28;20071;-76
2022/01/03 04:08:34;;;;;;;10.18;1.92;;;10.90;90.50;;;;;;5070385;28;20040;-76
2022/01/03 04:11:01;;;;;;;17.40;2.95;;;10.80;90.50;;;;;;5053649;28;20059;-76
2022/01/03 04:13:30;;;;;;;11.20;2.60;;;10.90;90.50;;;;;;5087347;28;20106;-76
2022/01/03 04:15:58;;;;;;;15.38;2.13;;;10.80;90.50;;;;;;5037636;28;20051;-76
2022/01/03 04:18:25;;;;;;;13.32;2.17;;;10.80;90.40;;;;;;5071674;28;20044;-75
2022/01/03 04:20:52;;;;;;;13.15;2.33;;;10.80;90.40;;;;;;5069555;28;20048;-76
2022/01/03 04:23:19;;;;;;;11.95;2.35;;;10.80;90.40;;;;;;5071024;28;20047;-75
2022/01/03 04:25:47;;;;;;;14.75;2.78;;;10.80;90.40;;;;;;5054810;28;20155;-76
2022/01/03 04:28:16;;;;;;;12.95;2.95;;;10.80;90.40;;;;;;5087923;28;20061;-76
2022/01/03 04:30:43;;;;;;;17.83;3.10;;;10.80;90.40;;;;;;5070800;28;20450;-76
2022/01/03 04:33:10;;;;;;;19.13;2.97;;;10.80;90.30;;;;;;5079193;28;20040;-76
2022/01/03 04:35:41;;;;;;;14.32;2.75;;;10.80;90.60;;;;;;5087886;28;20135;-76
2022/01/03 04:38:08;;;;;;;15.63;3.20;;;10.90;90.30;;;;;;5086647;28;20546;-76
2022/01/03 04:40:35;;;;;;;15.93;2.42;;;10.90;90.30;;;;;;5087342;28;20044;-76
2022/01/03 04:43:03;;;;;;;18.60;2.72;;;10.90;90.30;;;;;;5087640;28;20120;-76
2022/01/03 04:45:30;;;;;;;11.93;2.13;;;10.90;90.30;;;;;;5070423;28;20055;-76
2022/01/03 04:47:57;;;;;;;14.32;2.75;;;10.90;90.30;;;;;;5037417;28;20056;-76
2022/01/03 04:50:25;;;;;;;13.68;3.20;;;10.90;90.40;;;;;;5086960;28;20047;-76
2022/01/03 04:52:55;;;;;;;13.57;2.30;;;10.90;90.30;;;;;;5068258;28;20439;-77
2022/01/03 04:55:22;;;;;;;13.98;3.13;;;10.90;90.30;;;;;;5061011;28;20048;-77
2022/01/03 04:57:50;;;;;;;16.63;4.20;;;10.90;90.30;;;;;;5070890;28;20134;-77
2022/01/03 05:00:21;;;;;;;23.98;3.72;;;10.90;90.30;;;;;;5070424;28;20048;-76
2022/01/03 05:02:48;;;;;;;17.90;4.85;;;10.90;90.30;;;;;;5085225;28;20536;-76
2022/01/03 05:05:16;;;;;;;19.27;3.08;;;10.90;90.20;;;;;;5053375;28;20044;-77
2022/01/03 05:07:43;;;;;;;15.98;3.03;;;10.80;90.20;;;;;;5070226;28;20166;-77
2022/01/03 05:10:12;;;;;;;15.05;2.13;;;10.90;90.60;;;;;;5069381;28;20677;-77
2022/01/03 05:12:40;;;;;;;21.38;4.95;;;10.80;90.30;;;;;;5054654;28;20530;-76
2022/01/03 05:15:07;;;;;;;10.73;2.42;;;10.80;90.30;;;;;;5070150;28;20526;-77
2022/01/03 05:17:34;;;;;;;14.80;2.75;;;10.90;90.30;;;;;;5086620;28;20113;-77
2022/01/03 05:20:03;;;;;;;17.08;3.45;;;10.80;90.20;;;;;;5086269;28;20052;-78
2022/01/03 05:22:32;;;;;;;14.70;2.13;;;10.80;90.20;;;;;;5053287;28;20140;-77
2022/01/03 05:25:00;;;;;;;17.98;2.63;;;10.90;90.20;;;;;;5086258;28;20040;-76
2022/01/03 05:27:31;;;;;;;14.07;2.47;;;10.90;90.20;;;;;;5070148;28;20153;-76
2022/01/03 05:29:58;;;;;;;17.33;2.78;;;10.90;90.20;;;;;;5070294;28;20055;-77
2022/01/03 05:32:27;;;;;;;14.98;2.35;;;10.90;90.20;;;;;;5053593;28;20070;-77
2022/01/03 05:34:54;;;;;;;13.30;2.40;;;10.90;90.20;;;;;;5086292;28;20600;-77
2022/01/03 05:37:21;;;;;;;14.70;3.20;;;10.90;90.30;;;;;;5053866;28;20583;-77
2022/01/03 05:39:51;;;;;;;13.32;1.77;;;10.90;90.20;;;;;;5086646;28;20040;-76
2022/01/03 05:42:18;;;;;;;19.67;3.70;;;10.90;90.30;;;;;;5069366;28;20048;-76
2022/01/03 05:44:45;;;;;;;23.80;3.58;;;10.90;90.30;;;;;;5070048;28;20044;-77
2022/01/03 05:47:12;;;;;;;16.17;3.25;;;10.90;90.30;;;;;;5086443;28;20059;-77
2022/01/03 05:49:39;;;;;;;21.35;3.70;;;11.00;90.30;;;;;;5076061;28;20047;-77
2022/01/03 05:52:09;;;;;;;12.27;2.05;;;10.90;90.30;;;;;;5086167;28;20742;-77
2022/01/03 05:54:36;;;;;;;8.70;1.70;;;10.90;90.30;;;;;;5069057;28;20048;-77
2022/01/03 05:57:04;;;;;;;15.32;3.78;;;10.90;90.30;;;;;;5069506;28;20165;-77
2022/01/03 05:59:31;;;;;;;20.55;3.13;;;10.90;90.30;;;;;;5087235;28;20040;-77
2022/01/03 06:01:58;;;;;;;13.10;1.90;;;11.00;90.30;;;;;;5085342;28;20040;-77
2022/01/03 06:04:39;;;;;;;14.07;3.15;;;10.90;90.30;;;;;;5069225;28;20048;-77
2022/01/03 06:07:10;;;;;;;15.77;2.70;;;10.90;90.20;;;;;;5087079;28;20036;-77
2022/01/03 06:09:47;;;;;;;14.43;2.25;;;11.00;90.50;;;;;;5085992;28;20125;-77
2022/01/03 06:12:21;;;;;;;15.18;2.55;;;11.00;90.20;;;;;;5069589;28;20575;-77
2022/01/03 06:14:51;;;;;;;15.57;2.00;;;11.00;90.20;;;;;;5037914;28;20624;-77
2022/01/03 06:17:33;;;;;;;12.15;2.80;;;11.00;90.20;;;;;;5036490;28;20064;-77
2022/01/03 06:20:06;;;;;;;14.90;3.13;;;11.00;90.20;;;;;;5068841;28;20044;-77
2022/01/03 06:22:37;;;;;;;14.38;3.50;;;11.00;90.20;;;;;;5046828;28;20048;-77
2022/01/03 06:25:09;;;;;;;11.55;2.25;;;11.00;90.20;;;;;;5069153;28;20059;-77
2022/01/03 06:27:38;;;;;;;10.05;2.00;;;11.00;90.20;;;;;;5085702;28;20063;-77
2022/01/03 06:30:07;;;;;;;7.78;1.90;;;11.00;90.30;;;;;;5068947;28;20044;-78
2022/01/03 06:32:36;;;;;;;14.60;2.00;;;11.00;90.30;;;;;;5085393;28;20715;-77
2022/01/03 06:35:05;;;;;;;18.58;2.40;;;11.00;90.30;;;;;;5036260;28;20101;-77
2022/01/03 06:37:38;;;;;;;12.02;2.80;;;11.00;90.30;;;;;;5068476;28;20071;-77
2022/01/03 06:40:17;;;;;;;13.80;2.10;;;11.00;90.20;;;;;;5059921;28;20726;-77
2022/01/03 06:42:46;;;;;;;10.02;2.55;;;11.00;90.10;;;;;;5068252;28;20048;-77
2022/01/03 06:45:16;;;;;;;11.20;1.77;;;11.00;90.10;;;;;;5085317;28;20407;-76
2022/01/03 06:47:44;;;;;;;17.25;3.33;;;11.00;90.10;;;;;;5085116;28;20135;-77
2022/01/03 06:50:11;;;;;;;12.25;2.40;;;11.00;90.00;;;;;;5067793;28;20043;-76
2022/01/03 06:52:39;;;;;;;19.90;3.40;;;11.00;90.10;;;;;;5066768;28;20687;-76
2022/01/03 06:55:08;;;;;;;21.63;3.20;;;11.00;90.00;;;;;;5067585;28;20861;-76
2022/01/03 06:57:35;;;;;;;13.23;2.55;;;11.10;89.90;;;;;;5068102;28;20097;-76
2022/01/03 07:00:04;;;;;;;14.05;1.77;;;11.10;89.70;;;;;;5053171;28;20051;-76
2022/01/03 07:02:31;;;;;;;13.93;2.72;;;11.10;89.60;;;;;;5067293;28;20051;-76
2022/01/03 07:05:01;;;;;;;16.77;2.20;;;11.10;89.40;;;;;;5076053;28;20052;-77
2022/01/03 07:07:28;;;;;;;10.70;2.90;;;11.10;89.40;;;;;;5092526;28;20092;-77
2022/01/03 07:09:55;;;;;;;15.30;1.77;;;11.10;89.40;;;;;;5041088;28;20048;-77
2022/01/03 07:12:22;;;;;;;8.30;1.45;;;11.10;89.50;;;;;;5092096;28;20039;-77
2022/01/03 07:20:03;;;;;;;12.77;2.28;;;11.10;89.40;;;;;;5090432;28;20044;-76
2022/01/03 07:22:30;;;;;;;15.80;3.45;;;11.10;89.20;;;;;;5092079;28;20162;-76
2022/01/03 07:24:58;;;;;;;14.82;2.40;;;11.10;89.20;;;;;;5090397;28;20532;-76
2022/01/03 07:27:25;;;;;;;13.23;2.35;;;11.10;89.30;;;;;;5058079;28;20050;-76
2022/01/03 07:29:54;;;;;;;13.80;2.55;;;11.10;88.90;;;;;;5060732;28;20113;-77
2022/01/03 07:32:21;;;;;;;8.15;1.70;;;11.10;89.10;;;;;;5091822;28;20044;-76
2022/01/03 07:34:51;;;;;;;6.78;1.88;;;11.10;89.30;;;;;;5091173;28;20118;-76
2022/01/03 07:37:18;;;;;;;9.90;1.98;;;11.10;89.30;;;;;;5090986;28;20462;-77
2022/01/03 07:39:45;;;;;;;17.60;2.53;;;11.00;89.40;;;;;;5091680;28;20048;-77
2022/01/03 07:42:14;;;;;;;9.93;2.15;;;11.10;89.40;;;;;;5065443;28;20055;-78
2022/01/03 07:44:46;;;;;;;5.90;1.63;;;11.10;89.50;;;;;;5076406;28;20381;-77
2022/01/03 07:47:13;;;;;;;19.70;2.97;;;11.10;89.30;;;;;;5058458;28;20496;-80
2022/01/03 07:49:40;;;;;;;15.25;2.42;;;11.00;89.20;;;;;;5076312;28;20044;-78
2022/01/03 07:52:07;;;;;;;19.45;3.50;;;11.10;89.20;;;;;;5057634;28;20048;-76
2022/01/03 07:54:34;;;;;;;14.50;2.35;;;11.00;89.20;;;;;;5092678;28;20145;-77
2022/01/03 07:57:02;;;;;;;14.25;1.90;;;11.00;89.20;;;;;;5074599;28;20051;-76
2022/01/03 07:59:29;;;;;;;13.20;1.95;;;11.00;89.20;;;;;;5057697;28;20496;-76
2022/01/03 08:01:58;;;;;;;14.93;2.17;;;11.00;89.40;;;;;;5089692;28;20040;-76
2022/01/03 08:04:27;;;;;;;10.05;1.75;;;11.00;90.00;;;;;;5075346;28;20043;-76
2022/01/03 08:06:54;;;;;;;11.05;2.22;;;11.10;89.50;;;;;;5091024;28;20036;-76
2022/01/03 08:09:21;;;;;;;15.40;2.70;;;11.00;89.40;;;;;;5091140;28;20541;-76
2022/01/03 08:11:48;;;;;;;16.25;2.55;;;11.00;89.40;;;;;;5052886;28;20109;-81
2022/01/03 08:14:23;;;;;;;11.98;1.92;;;11.00;89.40;;;;;;5087081;28;20066;-79
2022/01/03 08:16:53;;;;;;;11.00;1.95;;;11.00;89.30;;;;;;5086576;28;20040;-78
2022/01/03 08:19:22;;;;;;;11.73;2.13;;;11.00;89.20;;;;;;5086342;28;20085;-79
2022/01/03 08:21:50;;;;;;;12.50;2.35;;;11.10;89.30;;;;;;5088265;28;20043;-79
2022/01/03 08:24:22;;;;;;;10.45;1.95;;;11.10;89.40;;;;;;5065818;28;20051;-79
2022/01/03 08:26:54;;;;;;;18.10;2.15;;;11.10;89.30;;;;;;5071170;28;20440;-80
2022/01/03 08:29:23;;;;;;;12.68;1.83;;;11.10;89.10;;;;;;5088102;28;20052;-79
2022/01/03 08:31:51;;;;;;;11.23;2.10;;;11.10;89.10;;;;;;5069976;28;20171;-79
2022/01/03 08:34:18;;;;;;;9.95;2.08;;;11.10;89.10;;;;;;5054341;28;20044;-77
2022/01/03 08:36:45;;;;;;;8.77;1.85;;;11.10;89.20;;;;;;5054373;28;20056;-76
2022/01/03 08:39:12;;;;;;;14.15;2.70;;;11.10;89.20;;;;;;5089800;28;20062;-79
2022/01/03 08:41:39;;;;;;;8.60;2.00;;;11.10;89.10;;;;;;5070913;28;21178;-79
2022/01/03 08:44:07;;;;;;;13.68;2.50;;;11.10;89.00;;;;;;5071432;28;20112;-80
2022/01/03 08:46:34;;;;;;;14.25;2.97;;;11.10;88.80;;;;;;5070019;28;20081;-80
2022/01/03 08:49:01;;;;;;;10.65;2.35;;;11.20;88.80;;;;;;5052726;28;20063;-81
2022/01/03 08:51:32;;;;;;;9.60;2.47;;;11.20;88.70;;;;;;5086569;28;20739;-81
2022/01/03 08:54:02;;;;;;;10.10;1.85;;;11.20;88.80;;;;;;5070277;28;20512;-80
2022/01/03 08:56:29;;;;;;;12.50;2.20;;;11.20;88.80;;;;;;5070265;28;20702;-79
2022/01/03 08:58:56;;;;;;;9.27;2.28;;;11.20;88.80;;;;;;5071308;28;20036;-77
2022/01/03 09:01:24;;;;;;;12.32;2.22;;;11.20;88.70;;;;;;5070542;28;20484;-78
2022/01/03 09:03:52;;;;;;;11.82;2.00;;;11.20;88.60;;;;;;5088392;28;20114;-78
2022/01/03 09:06:20;;;;;;;9.48;2.08;;;11.20;88.60;;;;;;5071313;28;20032;-78
2022/01/03 09:08:47;;;;;;;13.80;2.30;;;11.20;88.30;;;;;;5077629;28;20048;-78
2022/01/03 09:11:21;;;;;;;10.77;2.40;;;11.20;88.30;;;;;;5062597;28;20109;-79
2022/01/03 09:13:50;;;;;;;12.02;2.35;;;11.20;88.10;;;;;;5071250;28;20056;-79
2022/01/03 09:16:25;;;;;;;11.27;2.38;;;11.20;87.90;;;;;;5071139;28;20048;-79
2022/01/03 09:18:53;;;;;;;14.43;2.50;;;11.20;87.80;;;;;;5087639;28;20039;-81
2022/01/03 09:21:27;;;;;;;9.27;1.88;;;11.20;87.80;;;;;;5069900;28;20047;-80
2022/01/03 09:29:48;;;;;;;13.85;2.78;;;11.30;87.80;;;;;;5087645;28;20044;-83
2022/01/03 09:32:17;;;;;;;8.68;2.00;;;11.30;87.70;;;;;;5070221;28;20135;-82
2022/01/03 09:34:45;;;;;;;15.85;2.22;;;11.30;87.80;;;;;;5069826;28;20073;-82
2022/01/03 09:37:12;;;;;;;10.95;2.38;;;11.30;87.90;;;;;;5071008;28;20652;-81
2022/01/03 09:39:40;;;;;;;7.85;2.10;;;11.30;87.90;;;;;;5069631;28;20044;-81
2022/01/03 09:42:13;;;;;;;8.65;2.38;;;11.30;87.90;;;;;;5068350;28;20052;-80
2022/01/03 09:44:44;;;;;;;16.80;2.45;;;11.30;87.90;;;;;;5085775;28;20048;-77
2022/01/03 09:47:16;;;;;;;14.57;2.28;;;11.30;87.70;;;;;;5085493;28;20068;-77
2022/01/03 09:49:44;;;;;;;;;;;11.30;87.80;;;;;;5085530;28;20772;-78
2022/01/03 09:52:15;;;;;;;7.18;1.75;;;11.30;87.90;;;;;;5083596;28;19959;-75
2022/01/03 09:54:44;;;;;;;12.23;2.20;;;11.30;88.00;;;;;;5085681;28;20136;-74
2022/01/03 09:57:13;;;;;;;16.10;2.30;;;11.30;88.00;;;;;;5083434;28;20055;-76
2022/01/03 09:59:42;;;;;;;15.65;2.58;;;11.30;87.80;;;;;;5068370;28;21110;-75
2022/01/03 10:02:10;;;;;;;11.63;2.45;;;11.30;87.90;;;;;;5072641;28;20060;-76
2022/01/03 10:04:37;;;;;;;11.70;1.90;;;11.20;87.90;;;;;;5069121;28;20048;-76
2022/01/03 10:07:10;;;;;;;8.48;1.90;;;11.30;88.10;;;;;;5084088;28;20604;-75
2022/01/03 10:09:39;;;;;;;10.73;2.42;;;11.30;88.20;;;;;;5082301;28;20527;-75
2022/01/03 10:12:10;;;;;;;12.40;2.45;;;11.30;87.90;;;;;;5063772;28;20049;-75
2022/01/03 10:14:40;;;;;;;12.20;2.20;;;11.40;87.80;;;;;;5080102;28;20056;-76
2022/01/03 10:17:07;;;;;;;11.35;1.90;;;11.30;87.80;;;;;;5078026;28;20036;-75
2022/01/03 10:19:55;;;;;;;12.73;2.30;;;11.40;87.80;;;;;;5056708;28;20059;-76
2022/01/03 10:22:25;;;;;;;11.13;2.03;;;11.40;87.50;;;;;;5083547;28;20040;-75
2022/01/03 10:24:53;;;;;;;11.77;2.15;;;11.40;87.60;;;;;;5067737;28;20059;-77
2022/01/03 10:27:22;;;;;;;16.13;3.05;;;11.40;87.50;;;;;;5083024;28;20113;-77
2022/01/03 10:29:59;;;;;;;17.88;4.13;;;11.50;87.20;;;;;;5086151;28;20052;-76
2022/01/03 10:32:29;;;;;;;8.80;2.28;;;11.50;86.70;;;;;;5083978;28;20052;-75
2022/01/03 10:35:14;;;;;;;12.98;3.13;;;11.50;87.10;;;;;;5066576;28;20043;-75
2022/01/03 10:37:42;;;;;;;12.25;2.83;;;11.60;86.80;;;;;;5071710;28;20692;-75
2022/01/03 10:40:36;;;;;;;15.52;2.35;;;11.50;86.80;;;;;;5081566;28;20129;-75
2022/01/03 10:43:19;;;;;;;12.02;2.05;;;11.60;87.00;;;;;;5067949;28;20055;-76
2022/01/03 10:45:47;;;;;;;;;;;11.70;86.80;;;;;;5084967;28;20048;-76
2022/01/03 10:48:33;;;;;;;8.15;2.22;;;11.70;86.60;;;;;;5084304;28;20485;-75
2022/01/03 10:51:02;;;;;;;8.77;2.20;;;11.80;86.60;;;;;;5080148;28;20048;-76
2022/01/03 10:53:38;;;;;;;16.25;2.13;;;11.80;86.30;;;;;;5063930;28;20592;-75
2022/01/03 10:56:36;;;;;;;8.77;2.15;;;11.90;86.10;;;;;;5084150;28;20036;-76
2022/01/03 10:59:22;;;;;;;12.43;3.15;;;11.90;86.00;;;;;;5083767;28;20076;-76
2022/01/03 11:02:04;;;;;;;10.88;2.40;;;11.90;85.70;;;;;;5081857;28;20074;-76
2022/01/03 11:04:39;;;;;;;13.35;2.60;;;12.00;86.30;;;;;;5082757;28;20051;-76
2022/01/03 11:13:23;;;;;;;11.38;2.20;;;12.10;85.90;;;;;;5071152;28;20040;-77
2022/01/03 11:16:00;;;;;;;;;;;12.00;85.60;;;;;;5075015;28;20040;-76
2022/01/03 11:18:31;;;;;;;17.67;2.40;;;11.90;85.70;;;;;;5068177;28;19928;-77
2022/01/03 11:21:16;;;;;;;13.48;2.88;;;11.90;85.80;;;;;;5084872;28;20032;-76
2022/01/03 11:23:51;;;;;;;12.45;2.60;;;12.00;85.80;;;;;;5084970;28;20408;-76
2022/01/03 11:26:27;;;;;;;9.98;2.08;;;12.00;85.60;;;;;;5084822;28;20067;-79
2022/01/03 11:29:32;;;;;;;11.82;1.92;;;12.00;85.90;;;;;;5084269;28;20051;-79
2022/01/03 11:32:19;;;;;;;7.68;2.22;;;12.10;85.70;;;;;;5067874;28;20105;-79
2022/01/03 11:34:55;;;;;;;11.98;2.20;;;12.10;85.80;;;;;;5081550;28;20725;-77
2022/01/03 11:37:22;;;;;;;11.70;1.85;;;12.20;85.50;;;;;;5065918;28;20534;-76
2022/01/03 11:39:52;;;;;;;8.05;1.98;;;12.20;85.40;;;;;;5085843;28;20044;-76
2022/01/03 11:42:22;;;;;;;12.10;3.05;;;12.20;85.40;;;;;;5067517;28;20052;-77
2022/01/03 11:44:49;;;;;;;9.20;1.98;;;12.20;85.20;;;;;;5066259;28;20040;-76
2022/01/03 11:47:18;;;;;;;11.88;1.83;;;12.20;85.30;;;;;;5053264;28;20047;-76
2022/01/03 11:49:46;;;;;;;13.45;2.88;;;12.10;85.30;;;;;;5072568;28;20044;-77
2022/01/03 11:52:15;;;;;;;11.13;2.53;;;12.10;85.40;;;;;;5081711;28;20090;-76
2022/01/03 11:54:43;;;;;;;13.27;2.30;;;12.00;85.40;;;;;;5086389;28;20586;-78
2022/01/03 11:57:45;;;;;;;11.20;1.77;;;12.00;85.40;;;;;;5079068;28;20117;-80
2022/01/03 12:06:47;;;;;;;12.52;2.67;;;11.90;85.70;;;;;;5081482;28;20048;-82
2022/01/03 12:09:29;;;;;;;13.73;2.47;;;11.90;85.90;;;;;;5078548;28;20032;-78
2022/01/03 12:11:57;;;;;;;8.80;1.45;;;11.90;85.90;;;;;;5085160;28;20043;-80
2022/01/03 12:14:47;;;;;;;8.38;1.02;;;11.90;86.10;;;;;;5087758;28;20052;-79
2022/01/03 12:17:20;;;;;;;7.07;1.45;;;11.90;86.20;;;;;;5068311;28;20684;-83
2022/01/03 12:20:14;;;;;;;7.68;2.00;;;11.90;86.40;;;;;;5089701;28;20056;-84
2022/01/03 12:22:55;;;;;;;7.88;1.20;;;11.90;86.40;;;;;;5081954;28;20052;-80
2022/01/03 12:25:26;;;;;;;7.68;1.90;;;12.00;86.50;;;;;;5087226;28;20047;-81
2022/01/03 12:28:03;;;;;;;9.38;1.67;;;12.00;86.40;;;;;;5067925;28;20127;-82
2022/01/03 12:30:34;;;;;;;10.98;2.08;;;12.00;86.10;;;;;;5085656;28;20040;-80
2022/01/03 12:33:12;;;;;;;11.95;2.00;;;12.00;86.10;;;;;;5084679;28;20039;-81
2022/01/03 12:36:16;;;;;;;11.30;1.67;;;12.00;86.30;;;;;;5086073;28;20062;-79
2022/01/03 12:39:11;;;;;;;8.00;2.38;;;11.90;86.20;;;;;;5087624;28;20129;-82
2022/01/03 12:41:52;;;;;;;10.02;2.28;;;11.90;86.30;;;;;;5074404;28;20047;-81
2022/01/03 12:44:45;;;;;;;10.80;1.88;;;11.80;86.30;;;;;;5084648;28;20032;-79
2022/01/03 12:47:17;;;;;;;7.70;1.35;;;11.80;86.30;;;;;;5085743;28;20125;-79
2022/01/03 12:49:44;;;;;;;12.65;2.20;;;11.80;86.50;;;;;;5086356;28;20045;-80
2022/01/03 12:52:16;;;;;;;13.15;1.85;;;11.80;86.40;;;;;;5062288;28;20044;-79
2022/01/03 12:54:51;;;;;;;8.98;1.52;;;11.80;87.10;;;;;;5073002;28;20075;-83
2022/01/03 12:58:18;;;;;;;8.65;1.95;;;11.90;86.50;;;;;;5051457;28;20139;-83
2022/01/03 13:01:25;;;;;;;10.23;2.60;;;11.90;86.20;;;;;;5082297;28;20056;-85
2022/01/03 13:04:17;;;;;;;8.00;1.67;;;11.80;85.90;;;;;;5086463;28;20053;-80
2022/01/03 13:07:04;;;;;;;8.45;1.60;;;11.80;86.00;;;;;;5082612;28;20055;-80
2022/01/03 13:09:31;;;;;;;11.32;1.67;;;11.70;85.90;;;;;;5086371;28;20067;-76
2022/01/03 13:12:05;;;;;;;13.07;2.33;;;11.70;85.80;;;;;;5083406;28;20116;-78
2022/01/03 13:14:33;;;;;;;7.20;1.30;;;11.70;85.60;;;;;;5083434;28;20048;-76
2022/01/03 13:17:03;;;;;;;6.57;1.30;;;11.70;85.60;;;;;;5084348;28;20036;-76
2022/01/03 13:19:30;;;;;;;9.52;1.95;;;11.70;85.60;;;;;;5065396;28;20060;-75
2022/01/03 13:22:01;;;;;;;7.45;1.40;;;11.70;85.30;;;;;;5084879;28;20071;-76
2022/01/03 13:24:38;;;;;;;8.52;1.40;;;11.70;85.40;;;;;;5085626;28;20071;-79
2022/01/03 13:27:15;;;;;;;6.38;1.27;;;11.60;85.50;;;;;;5086597;28;20067;-80
2022/01/03 13:29:51;;;;;;;12.00;1.52;;;11.60;85.50;;;;;;5068368;28;20465;-76